createdAt,value
2017-12-30T12:38:27.106Z,569.83
2017-12-30T12:40:34.663Z,596.40
2017-12-30T12:42:38.831Z,568.43
2017-12-30T12:44:43.673Z,470.43
2017-12-30T12:46:49.210Z,247.57
2017-12-30T12:48:54.906Z,184.30
2017-12-30T12:50:59.955Z,150.10
2017-12-30T12:53:05.607Z,268.43
2017-12-30T12:55:12.015Z,242.97
2017-12-30T12:57:18.719Z,333.70
2017-12-30T12:59:24.074Z,295.30
2017-12-30T13:01:29.501Z,309.90
2017-12-30T13:03:35.232Z,335.93
2017-12-30T13:05:41.855Z,312.90
2017-12-30T13:07:47.310Z,298.07
2017-12-30T13:09:51.989Z,260.43
2017-12-30T13:12:00.376Z,240.00
2017-12-30T13:14:07.594Z,219.33
2017-12-30T13:16:13.344Z,202.00
2017-12-30T13:18:18.214Z,191.13
2017-12-30T13:20:24.509Z,160.80
2017-12-30T13:22:31.284Z,153.60
2017-12-30T13:24:36.261Z,434.47
2017-12-30T13:26:41.665Z,578.20
2017-12-30T13:28:46.531Z,747.30
2017-12-30T13:30:51.899Z,717.87
2017-12-30T13:32:57.776Z,634.53
2017-12-30T13:35:03.494Z,602.50
2017-12-30T13:37:08.054Z,523.60
2017-12-30T13:39:14.348Z,500.57
2017-12-30T13:41:20.989Z,456.33
2017-12-30T13:43:26.151Z,443.07
2017-12-30T13:45:30.794Z,433.53
2017-12-30T13:47:35.590Z,415.97
2017-12-30T13:49:40.171Z,411.13
2017-12-30T13:51:46.413Z,404.80
2017-12-30T13:53:51.980Z,383.53
2017-12-30T13:55:57.192Z,375.03
2017-12-30T13:58:01.490Z,376.67
2017-12-30T14:00:09.034Z,358.10
2017-12-30T14:02:13.667Z,343.30
2017-12-30T14:04:19.289Z,351.43
2017-12-30T14:06:24.264Z,345.47
2017-12-30T14:08:28.811Z,321.60
2017-12-30T14:10:34.815Z,314.80
2017-12-30T14:12:40.352Z,318.73
2017-12-30T14:14:46.967Z,300.33
2017-12-30T14:16:53.844Z,303.43
2017-12-30T14:18:58.686Z,295.27
2017-12-30T14:21:04.183Z,295.27
2017-12-30T14:23:10.210Z,286.83
2017-12-30T14:25:20.429Z,278.43
2017-12-30T14:27:28.184Z,267.47
2017-12-30T14:29:33.430Z,263.67
2017-12-30T14:31:40.138Z,255.80
2017-12-30T14:33:45.062Z,255.07
2017-12-30T14:35:51.470Z,242.93
2017-12-30T14:37:57.169Z,246.37
2017-12-30T14:40:05.746Z,236.73
2017-12-30T14:42:12.042Z,228.57
2017-12-30T14:44:18.449Z,229.60
2017-12-30T14:46:26.211Z,219.50
2017-12-30T14:48:33.124Z,217.57
2017-12-30T14:50:38.858Z,215.03
2017-12-30T14:52:43.722Z,211.40
2017-12-30T14:54:48.860Z,199.47
2017-12-30T14:56:56.293Z,201.23
2017-12-30T14:59:03.643Z,192.07
2017-12-30T15:01:12.335Z,188.80
2017-12-30T15:03:17.266Z,184.90
2017-12-30T15:05:23.202Z,182.27
2017-12-30T15:07:31.777Z,185.40
2017-12-30T15:09:38.192Z,171.83
2017-12-30T15:11:52.388Z,167.00
2017-12-30T15:14:07.617Z,161.03
2017-12-30T15:16:17.484Z,161.60
2017-12-30T15:18:40.439Z,164.60
2017-12-30T15:20:46.454Z,157.70
2017-12-30T15:22:56.221Z,148.37
2017-12-30T15:25:15.371Z,148.67
2017-12-30T15:27:37.351Z,143.60
2017-12-30T15:29:46.423Z,146.60
2017-12-30T15:31:58.830Z,141.60
2017-12-30T15:34:06.900Z,135.90
2017-12-30T15:36:13.592Z,135.83
2017-12-30T15:38:23.855Z,132.57
2017-12-30T15:50:32.534Z,118.50
2017-12-30T15:52:38.818Z,114.90
2017-12-30T15:57:37.159Z,112.37
2017-12-30T16:00:03.889Z,105.50
2017-12-30T16:02:10.160Z,101.17
2017-12-30T16:04:15.032Z,91.10
2017-12-30T16:06:20.539Z,93.83
2017-12-30T16:08:25.457Z,94.73
2017-12-30T16:10:30.242Z,90.07
2017-12-30T16:12:35.333Z,94.70
2017-12-30T16:14:39.930Z,90.20
2017-12-30T16:16:45.263Z,87.93
2017-12-30T16:18:51.515Z,91.17
2017-12-30T16:20:56.246Z,84.63
2017-12-30T16:23:02.475Z,86.17
2017-12-30T16:25:12.118Z,80.13
2017-12-30T16:27:18.028Z,74.70
2017-12-30T16:29:22.825Z,79.83
2017-12-30T16:31:30.067Z,77.20
2017-12-30T16:33:34.989Z,72.17
2017-12-30T16:35:41.102Z,72.90
2017-12-30T16:37:49.751Z,67.57
2017-12-30T16:39:54.913Z,69.87
2017-12-30T16:42:03.114Z,69.40
2017-12-30T16:44:08.541Z,67.33
2017-12-30T16:46:16.196Z,64.10
2017-12-30T16:48:21.446Z,62.43
2017-12-30T16:50:32.118Z,61.97
2017-12-30T16:52:38.829Z,64.10
2017-12-30T16:54:45.300Z,62.40
2017-12-30T16:56:51.926Z,58.83
2017-12-30T16:59:01.091Z,57.77
2017-12-30T17:01:08.091Z,58.77
2017-12-30T17:03:16.083Z,55.00
2017-12-30T17:05:30.547Z,54.30
2017-12-30T17:10:27.135Z,753.13
2017-12-30T17:14:57.469Z,466.20
2017-12-30T17:17:13.357Z,447.27
2017-12-30T17:19:19.783Z,411.43
2017-12-30T17:21:32.630Z,386.53
2017-12-30T17:23:42.797Z,364.67
2017-12-30T17:25:57.858Z,349.43
2017-12-30T17:28:12.205Z,336.60
2017-12-30T17:30:18.700Z,334.50
2017-12-30T17:32:26.059Z,306.50
2017-12-30T17:34:31.082Z,302.53
2017-12-30T17:36:35.458Z,302.80
2017-12-30T17:38:40.650Z,295.70
2017-12-30T17:40:45.557Z,288.63
2017-12-30T17:42:50.785Z,284.80
2017-12-30T17:44:55.926Z,600.17
2017-12-30T17:47:01.262Z,530.47
2017-12-30T17:49:08.582Z,543.97
2017-12-30T17:51:12.926Z,524.33
2017-12-30T17:53:21.187Z,519.37
2017-12-30T17:55:27.292Z,512.20
2017-12-30T17:57:34.477Z,507.23
2017-12-30T17:59:40.430Z,494.43
2017-12-30T18:01:49.185Z,486.13
2017-12-30T18:03:55.801Z,480.67
2017-12-30T18:06:01.658Z,466.53
2017-12-30T18:08:13.796Z,473.70
2017-12-30T18:10:19.991Z,459.07
2017-12-30T18:12:27.171Z,455.00
2017-12-30T18:14:33.463Z,452.00
2017-12-30T18:16:38.695Z,444.80
2017-12-30T18:18:45.209Z,453.30
2017-12-30T18:20:51.985Z,432.40
2017-12-30T18:22:58.859Z,698.43
2017-12-30T18:25:12.150Z,524.60
2017-12-30T18:27:18.067Z,564.83
2017-12-30T18:29:26.775Z,575.13
2017-12-30T18:31:33.064Z,588.70
2017-12-30T18:33:39.033Z,579.73
2017-12-30T18:35:48.324Z,843.00
2017-12-30T18:37:54.678Z,887.53
2017-12-30T18:40:00.270Z,785.60
2017-12-30T18:42:14.967Z,906.83
2017-12-30T18:44:29.289Z,775.47
2017-12-30T18:46:36.458Z,701.87
2017-12-30T18:48:47.468Z,684.90
2017-12-30T18:50:54.200Z,833.50
2017-12-30T18:53:00.937Z,659.33
2017-12-30T18:55:10.491Z,936.43
2017-12-30T18:57:16.725Z,657.57
2017-12-30T18:59:23.678Z,632.70
2017-12-30T19:01:31.680Z,621.57
2017-12-30T19:03:37.426Z,618.43
2017-12-30T19:05:42.583Z,995.07
2017-12-30T19:07:48.929Z,646.53
2017-12-30T19:09:55.041Z,903.10
2017-12-30T19:12:00.163Z,1142.83
2017-12-30T19:14:07.314Z,790.63
2017-12-30T19:16:13.247Z,602.57
2017-12-30T19:18:19.633Z,654.80
2017-12-30T19:20:26.722Z,790.70
2017-12-30T19:22:34.654Z,564.87
2017-12-30T19:24:42.060Z,623.90
2017-12-30T19:26:50.989Z,544.23
2017-12-30T19:28:59.746Z,529.70
2017-12-30T19:31:06.203Z,512.27
2017-12-30T19:33:14.411Z,503.50
2017-12-30T19:35:20.857Z,616.10
2017-12-30T19:37:27.261Z,578.33
2017-12-30T19:39:35.112Z,521.47
2017-12-30T19:41:43.794Z,491.23
2017-12-30T19:43:51.887Z,485.73
2017-12-30T19:45:58.396Z,566.00
2017-12-30T19:50:15.209Z,689.73
2017-12-30T19:52:26.727Z,800.07
2017-12-30T19:54:32.276Z,483.30
2017-12-30T19:56:37.811Z,835.00
2017-12-30T19:58:46.179Z,480.03
2017-12-30T20:00:56.384Z,462.80
2017-12-30T20:03:00.984Z,451.57
2017-12-30T20:05:14.901Z,443.80
2017-12-30T20:07:20.393Z,432.23
2017-12-30T20:09:25.917Z,414.93
2017-12-30T20:11:33.533Z,776.33
2017-12-30T20:13:41.576Z,651.77
2017-12-30T20:15:51.008Z,443.43
2017-12-30T20:18:00.030Z,405.73
2017-12-30T20:20:07.541Z,379.43
2017-12-30T20:22:18.156Z,832.57
2017-12-30T20:24:24.688Z,410.53
2017-12-30T20:26:35.080Z,650.93
2017-12-30T20:28:40.680Z,384.63
2017-12-30T20:30:46.161Z,347.13
2017-12-30T20:32:54.557Z,213.30
2017-12-30T20:35:07.180Z,181.80
2017-12-30T20:37:12.468Z,475.03
2017-12-30T20:39:17.812Z,160.63
2017-12-30T20:41:24.080Z,385.17
2017-12-30T20:43:31.086Z,221.50
2017-12-30T20:45:37.128Z,400.43
2017-12-30T20:47:43.122Z,491.47
2017-12-30T20:49:49.607Z,315.70
2017-12-30T20:51:54.054Z,256.83
2017-12-30T20:53:59.345Z,449.77
2017-12-30T20:56:05.411Z,262.80
2017-12-30T20:58:12.112Z,519.07
2017-12-30T21:00:18.685Z,486.17
2017-12-30T21:02:26.611Z,194.40
2017-12-30T21:04:38.109Z,166.57
2017-12-30T21:06:47.784Z,66.93
2017-12-30T21:08:56.449Z,239.87
2017-12-30T21:11:06.821Z,116.17
2017-12-30T21:13:18.428Z,68.00
2017-12-30T21:15:26.679Z,98.47
2017-12-30T21:17:33.087Z,50.90
2017-12-30T21:19:40.595Z,229.33
2017-12-30T21:21:46.249Z,394.20
2017-12-30T21:23:52.426Z,466.60
2017-12-30T21:26:06.632Z,373.93
2017-12-30T21:28:12.761Z,80.17
2017-12-30T21:30:18.202Z,113.33
2017-12-30T21:32:26.786Z,349.63
2017-12-30T21:34:36.051Z,53.17
2017-12-30T21:36:42.678Z,130.50
2017-12-30T21:38:51.820Z,108.57
2017-12-30T21:40:58.205Z,525.40
2017-12-30T21:43:06.510Z,70.10
2017-12-30T21:45:13.566Z,32.43
2017-12-30T21:49:30.128Z,597.47
2017-12-30T21:51:35.635Z,39.93
2017-12-30T21:53:41.479Z,58.30
2017-12-30T21:55:49.827Z,73.20
2017-12-30T21:57:55.147Z,219.37
2017-12-30T22:00:02.371Z,35.80
2017-12-30T22:02:08.991Z,25.40
2017-12-30T22:04:14.480Z,75.00
2017-12-30T22:06:20.321Z,309.63
2017-12-30T22:08:25.831Z,308.60
2017-12-30T22:10:32.635Z,476.80
2017-12-30T22:12:39.766Z,292.10
2017-12-30T22:14:44.919Z,211.70
2017-12-30T22:16:52.406Z,327.40
2017-12-30T22:18:58.479Z,404.30
2017-12-30T22:21:03.834Z,173.93
2017-12-30T22:23:09.474Z,181.07
2017-12-30T22:25:15.157Z,109.03
2017-12-30T22:27:20.394Z,506.00
2017-12-30T22:29:25.527Z,236.27
2017-12-30T22:31:31.423Z,128.27
2017-12-30T22:33:36.241Z,101.73
2017-12-30T22:35:41.359Z,424.40
2017-12-30T22:37:48.903Z,96.50
2017-12-30T22:39:55.460Z,169.77
2017-12-30T22:42:02.989Z,113.23
2017-12-30T22:44:10.097Z,51.37
2017-12-30T22:46:17.029Z,122.80
2017-12-30T22:48:22.154Z,92.27
2017-12-30T22:50:29.725Z,212.97
2017-12-30T22:52:36.744Z,96.17
2017-12-30T22:54:42.711Z,110.17
2017-12-30T22:56:49.864Z,65.70
2017-12-30T22:58:55.983Z,41.43
2017-12-30T23:01:08.523Z,29.73
2017-12-30T23:03:15.177Z,33.20
2017-12-30T23:05:23.488Z,107.57
2017-12-30T23:07:31.375Z,39.60
2017-12-30T23:09:40.850Z,32.00
2017-12-30T23:11:49.377Z,24.67
2017-12-30T23:13:55.307Z,325.30
2017-12-30T23:16:00.991Z,397.27
2017-12-30T23:18:07.849Z,388.60
2017-12-30T23:20:14.113Z,320.87
2017-12-30T23:22:24.420Z,213.67
2017-12-30T23:24:30.150Z,219.27
2017-12-30T23:26:35.227Z,422.87
2017-12-30T23:28:40.071Z,471.00
2017-12-30T23:30:44.766Z,620.70
2017-12-30T23:32:49.477Z,387.93
2017-12-30T23:34:59.307Z,317.67
2017-12-30T23:37:08.417Z,188.90
2017-12-30T23:39:14.794Z,214.83
2017-12-30T23:41:22.792Z,125.87
2017-12-30T23:43:28.099Z,85.10
2017-12-30T23:45:33.522Z,64.60
2017-12-30T23:47:38.989Z,67.83
2017-12-30T23:49:43.943Z,58.07
2017-12-30T23:51:48.919Z,50.27
2017-12-30T23:53:55.706Z,48.30
2017-12-30T23:56:01.068Z,53.67
2017-12-30T23:58:06.564Z,43.57
